sensor_id;sensor_type;location;lat;lon;timestamp;pressure;altitude;pressure_sealevel;temperature;humidity
1371;BME280;14306;49.942;11.570;2022-10-31T00:02:24;98034.19;;;11.05;92.93
1371;BME280;14306;49.942;11.570;2022-10-31T00:04:49;98039.66;;;11.00;93.25
1371;BME280;14306;49.942;11.570;2022-10-31T00:07:14;98035.28;;;11.04;92.82
1371;BME280;14306;49.942;11.570;2022-10-31T00:09:40;98034.09;;;11.10;92.86
1371;BME280;14306;49.942;11.570;2022-10-31T00:12:05;98037.63;;;11.10;92.60
1371;BME280;14306;49.942;11.570;2022-10-31T00:14:31;98038.22;;;10.84;93.36
1371;BME280;14306;49.942;11.570;2022-10-31T00:16:56;98032.31;;;10.82;93.72
1371;BME280;14306;49.942;11.570;2022-10-31T00:19:21;98030.81;;;10.94;93.24
1371;BME280;14306;49.942;11.570;2022-10-31T00:21:47;98029.34;;;11.02;93.45
1371;BME280;14306;49.942;11.570;2022-10-31T00:24:12;98036.81;;;11.10;92.52
1371;BME280;14306;49.942;11.570;2022-10-31T00:26:37;98037.09;;;11.08;93.61
1371;BME280;14306;49.942;11.570;2022-10-31T00:29:03;98031.09;;;11.11;93.06
1371;BME280;14306;49.942;11.570;2022-10-31T00:31:29;98038.00;;;11.04;93.49
1371;BME280;14306;49.942;11.570;2022-10-31T00:33:54;98038.78;;;11.04;93.51
1371;BME280;14306;49.942;11.570;2022-10-31T00:36:20;98048.88;;;10.99;92.99
1371;BME280;14306;49.942;11.570;2022-10-31T00:38:46;98040.09;;;10.88;92.51
1371;BME280;14306;49.942;11.570;2022-10-31T00:41:14;98039.97;;;10.75;92.65
1371;BME280;14306;49.942;11.570;2022-10-31T00:43:40;98037.84;;;10.72;92.97
1371;BME280;14306;49.942;11.570;2022-10-31T00:46:06;98040.25;;;10.73;93.96
1371;BME280;14306;49.942;11.570;2022-10-31T00:48:31;98039.06;;;10.61;93.47
1371;BME280;14306;49.942;11.570;2022-10-31T00:50:56;98044.31;;;10.52;93.46
1371;BME280;14306;49.942;11.570;2022-10-31T00:53:22;98034.63;;;10.70;93.47
1371;BME280;14306;49.942;11.570;2022-10-31T00:55:48;98044.66;;;10.69;92.84
1371;BME280;14306;49.942;11.570;2022-10-31T00:58:13;98046.09;;;10.62;93.80
1371;BME280;14306;49.942;11.570;2022-10-31T01:00:39;98039.34;;;10.59;92.91
1371;BME280;14306;49.942;11.570;2022-10-31T01:03:04;98041.47;;;10.62;94.32
1371;BME280;14306;49.942;11.570;2022-10-31T01:05:30;98033.34;;;10.62;93.97
1371;BME280;14306;49.942;11.570;2022-10-31T01:07:55;98035.13;;;10.72;94.01
1371;BME280;14306;49.942;11.570;2022-10-31T01:10:21;98051.53;;;10.62;94.73
1371;BME280;14306;49.942;11.570;2022-10-31T01:12:47;98044.47;;;10.61;93.63
1371;BME280;14306;49.942;11.570;2022-10-31T01:15:19;98035.59;;;10.55;93.93
1371;BME280;14306;49.942;11.570;2022-10-31T01:17:46;98032.38;;;10.53;93.46
1371;BME280;14306;49.942;11.570;2022-10-31T01:20:13;98045.09;;;10.53;93.90
1371;BME280;14306;49.942;11.570;2022-10-31T01:22:39;98044.06;;;10.49;93.84
1371;BME280;14306;49.942;11.570;2022-10-31T01:25:05;98042.78;;;10.65;93.26
1371;BME280;14306;49.942;11.570;2022-10-31T01:27:31;98039.41;;;10.54;94.15
1371;BME280;14306;49.942;11.570;2022-10-31T01:29:57;98050.97;;;10.36;93.11
1371;BME280;14306;49.942;11.570;2022-10-31T01:32:22;98037.13;;;10.38;93.59
1371;BME280;14306;49.942;11.570;2022-10-31T01:34:47;98040.03;;;10.46;92.63
1371;BME280;14306;49.942;11.570;2022-10-31T01:37:13;98034.72;;;10.36;93.48
1371;BME280;14306;49.942;11.570;2022-10-31T01:39:38;98032.00;;;10.36;93.06
1371;BME280;14306;49.942;11.570;2022-10-31T01:42:03;98025.34;;;10.29;93.39
1371;BME280;14306;49.942;11.570;2022-10-31T01:47:14;98031.38;;;10.21;93.52
1371;BME280;14306;49.942;11.570;2022-10-31T01:49:52;98049.34;;;10.35;93.69
1371;BME280;14306;49.942;11.570;2022-10-31T01:52:27;98037.41;;;10.36;94.06
1371;BME280;14306;49.942;11.570;2022-10-31T01:55:09;98038.53;;;10.35;94.36
1371;BME280;14306;49.942;11.570;2022-10-31T01:57:39;98029.00;;;10.14;94.92
1371;BME280;14306;49.942;11.570;2022-10-31T02:00:07;98030.28;;;10.22;94.50
1371;BME280;14306;49.942;11.570;2022-10-31T02:02:33;98030.00;;;10.23;95.09
1371;BME280;14306;49.942;11.570;2022-10-31T02:05:02;98037.06;;;10.19;93.87
1371;BME280;14306;49.942;11.570;2022-10-31T02:08:06;98035.34;;;10.28;93.51
1371;BME280;14306;49.942;11.570;2022-10-31T02:10:34;98028.53;;;10.31;93.38
1371;BME280;14306;49.942;11.570;2022-10-31T02:13:03;98031.50;;;10.34;93.69
1371;BME280;14306;49.942;11.570;2022-10-31T02:15:30;98034.38;;;10.19;93.65
1371;BME280;14306;49.942;11.570;2022-10-31T02:17:56;98033.22;;;10.25;94.04
1371;BME280;14306;49.942;11.570;2022-10-31T02:20:23;98029.16;;;10.28;94.27
1371;BME280;14306;49.942;11.570;2022-10-31T02:23:16;98035.34;;;10.28;93.44
1371;BME280;14306;49.942;11.570;2022-10-31T02:29:16;98040.47;;;10.30;93.58
1371;BME280;14306;49.942;11.570;2022-10-31T02:37:57;98044.53;;;9.99;92.88
1371;BME280;14306;49.942;11.570;2022-10-31T02:44:00;98043.81;;;9.55;93.40
1371;BME280;14306;49.942;11.570;2022-10-31T02:46:34;98042.34;;;9.67;93.48
1371;BME280;14306;49.942;11.570;2022-10-31T02:49:12;98034.44;;;9.76;94.49
1371;BME280;14306;49.942;11.570;2022-10-31T02:51:40;98031.75;;;9.76;94.21
1371;BME280;14306;49.942;11.570;2022-10-31T02:54:21;98033.94;;;9.74;94.67
1371;BME280;14306;49.942;11.570;2022-10-31T02:56:48;98031.53;;;9.67;94.79
1371;BME280;14306;49.942;11.570;2022-10-31T02:59:15;98035.91;;;9.63;95.56
1371;BME280;14306;49.942;11.570;2022-10-31T03:09:59;98031.78;;;9.71;94.48
1371;BME280;14306;49.942;11.570;2022-10-31T03:12:37;98038.25;;;9.75;94.26
1371;BME280;14306;49.942;11.570;2022-10-31T03:20:34;98038.69;;;9.53;94.45
1371;BME280;14306;49.942;11.570;2022-10-31T03:23:03;98037.16;;;9.42;94.97
1371;BME280;14306;49.942;11.570;2022-10-31T03:25:31;98043.28;;;9.53;94.74
1371;BME280;14306;49.942;11.570;2022-10-31T03:28:01;98041.13;;;9.50;94.58
1371;BME280;14306;49.942;11.570;2022-10-31T03:30:27;98037.88;;;9.53;94.26
1371;BME280;14306;49.942;11.570;2022-10-31T03:32:55;98038.31;;;9.65;94.96
1371;BME280;14306;49.942;11.570;2022-10-31T03:35:23;98046.81;;;9.53;94.46
1371;BME280;14306;49.942;11.570;2022-10-31T03:37:51;98039.63;;;9.34;94.41
1371;BME280;14306;49.942;11.570;2022-10-31T03:40:21;98040.44;;;9.34;94.36
1371;BME280;14306;49.942;11.570;2022-10-31T03:42:52;98053.91;;;9.39;94.58
1371;BME280;14306;49.942;11.570;2022-10-31T03:45:28;98049.81;;;9.47;95.14
1371;BME280;14306;49.942;11.570;2022-10-31T03:47:56;98046.34;;;9.41;94.44
1371;BME280;14306;49.942;11.570;2022-10-31T03:50:25;98049.34;;;9.35;94.76
1371;BME280;14306;49.942;11.570;2022-10-31T03:58:27;98038.81;;;9.38;94.46
1371;BME280;14306;49.942;11.570;2022-10-31T04:00:55;98043.38;;;9.38;94.03
1371;BME280;14306;49.942;11.570;2022-10-31T04:03:26;98039.59;;;9.39;94.20
1371;BME280;14306;49.942;11.570;2022-10-31T04:05:54;98043.69;;;9.31;94.23
1371;BME280;14306;49.942;11.570;2022-10-31T04:08:24;98022.13;;;9.26;94.59
1371;BME280;14306;49.942;11.570;2022-10-31T04:10:52;98036.41;;;9.32;94.94
1371;BME280;14306;49.942;11.570;2022-10-31T04:13:27;98044.03;;;9.25;95.51
1371;BME280;14306;49.942;11.570;2022-10-31T04:15:54;98038.81;;;9.33;94.53
1371;BME280;14306;49.942;11.570;2022-10-31T04:18:22;98043.09;;;9.39;94.78
1371;BME280;14306;49.942;11.570;2022-10-31T04:20:48;98045.81;;;9.39;94.45
1371;BME280;14306;49.942;11.570;2022-10-31T04:23:25;98043.94;;;9.40;92.93
1371;BME280;14306;49.942;11.570;2022-10-31T04:25:51;98037.47;;;9.31;94.01
1371;BME280;14306;49.942;11.570;2022-10-31T04:28:16;98039.91;;;9.32;95.12
1371;BME280;14306;49.942;11.570;2022-10-31T04:30:42;98042.66;;;9.27;94.70
1371;BME280;14306;49.942;11.570;2022-10-31T04:33:07;98041.91;;;9.17;95.18
1371;BME280;14306;49.942;11.570;2022-10-31T04:35:33;98035.31;;;9.28;94.59
1371;BME280;14306;49.942;11.570;2022-10-31T04:37:58;98039.22;;;9.17;94.69
1371;BME280;14306;49.942;11.570;2022-10-31T04:40:24;98039.13;;;9.32;94.32
1371;BME280;14306;49.942;11.570;2022-10-31T04:42:49;98041.31;;;9.20;94.45
1371;BME280;14306;49.942;11.570;2022-10-31T04:45:15;98044.72;;;9.40;94.30
1371;BME280;14306;49.942;11.570;2022-10-31T04:47:40;98039.94;;;9.27;94.49
1371;BME280;14306;49.942;11.570;2022-10-31T04:50:06;98036.44;;;9.27;94.66
1371;BME280;14306;49.942;11.570;2022-10-31T04:52:32;98034.59;;;9.17;94.29
1371;BME280;14306;49.942;11.570;2022-10-31T04:54:57;98036.22;;;9.13;94.58
1371;BME280;14306;49.942;11.570;2022-10-31T04:57:23;98023.41;;;8.90;94.55
1371;BME280;14306;49.942;11.570;2022-10-31T04:59:48;98033.25;;;9.15;94.26
1371;BME280;14306;49.942;11.570;2022-10-31T05:02:14;98033.03;;;9.06;95.04
1371;BME280;14306;49.942;11.570;2022-10-31T05:04:39;98034.63;;;9.12;95.07
1371;BME280;14306;49.942;11.570;2022-10-31T05:07:05;98022.81;;;8.98;94.27
1371;BME280;14306;49.942;11.570;2022-10-31T05:09:30;98034.94;;;9.06;94.25
1371;BME280;14306;49.942;11.570;2022-10-31T05:11:55;98042.84;;;8.92;94.72
1371;BME280;14306;49.942;11.570;2022-10-31T05:14:21;98035.84;;;8.86;94.44
1371;BME280;14306;49.942;11.570;2022-10-31T05:16:46;98038.25;;;8.88;95.00
1371;BME280;14306;49.942;11.570;2022-10-31T05:19:12;98036.31;;;8.98;94.71
1371;BME280;14306;49.942;11.570;2022-10-31T05:21:37;98031.69;;;9.04;96.08
1371;BME280;14306;49.942;11.570;2022-10-31T05:24:03;98037.16;;;8.94;95.17
1371;BME280;14306;49.942;11.570;2022-10-31T05:26:28;98031.22;;;8.92;93.90
1371;BME280;14306;49.942;11.570;2022-10-31T05:28:54;98034.44;;;8.99;93.68
1371;BME280;14306;49.942;11.570;2022-10-31T05:31:19;98033.31;;;9.05;93.67
1371;BME280;14306;49.942;11.570;2022-10-31T05:33:45;98030.13;;;8.93;94.15
1371;BME280;14306;49.942;11.570;2022-10-31T05:36:10;98027.78;;;8.81;94.86
1371;BME280;14306;49.942;11.570;2022-10-31T05:38:36;98029.41;;;8.72;94.55
1371;BME280;14306;49.942;11.570;2022-10-31T05:41:01;98025.59;;;8.83;94.17
1371;BME280;14306;49.942;11.570;2022-10-31T05:43:27;98030.91;;;8.98;93.45
1371;BME280;14306;49.942;11.570;2022-10-31T05:45:53;98036.31;;;8.98;93.96
1371;BME280;14306;49.942;11.570;2022-10-31T05:48:19;98029.06;;;8.94;94.22
1371;BME280;14306;49.942;11.570;2022-10-31T05:50:44;98037.34;;;9.12;93.76
1371;BME280;14306;49.942;11.570;2022-10-31T05:53:10;98040.94;;;8.93;95.09
1371;BME280;14306;49.942;11.570;2022-10-31T05:55:35;98040.94;;;8.98;94.70
1371;BME280;14306;49.942;11.570;2022-10-31T05:58:01;98034.47;;;8.89;94.51
1371;BME280;14306;49.942;11.570;2022-10-31T06:00:27;98037.16;;;8.94;94.63
1371;BME280;14306;49.942;11.570;2022-10-31T06:03:02;98033.63;;;8.98;94.69
1371;BME280;14306;49.942;11.570;2022-10-31T06:05:29;98033.28;;;9.10;93.81
1371;BME280;14306;49.942;11.570;2022-10-31T06:07:55;98040.28;;;9.16;93.51
1371;BME280;14306;49.942;11.570;2022-10-31T06:10:21;98031.19;;;9.02;93.68
1371;BME280;14306;49.942;11.570;2022-10-31T06:12:47;98033.84;;;9.07;94.06
1371;BME280;14306;49.942;11.570;2022-10-31T06:15:13;98036.22;;;9.13;94.18
1371;BME280;14306;49.942;11.570;2022-10-31T06:17:38;98032.63;;;9.28;94.19
1371;BME280;14306;49.942;11.570;2022-10-31T06:20:05;98044.75;;;9.35;93.77
1371;BME280;14306;49.942;11.570;2022-10-31T06:22:30;98044.53;;;9.32;94.03
1371;BME280;14306;49.942;11.570;2022-10-31T06:24:56;98030.59;;;9.10;95.04
1371;BME280;14306;49.942;11.570;2022-10-31T06:27:21;98043.75;;;9.21;95.33
1371;BME280;14306;49.942;11.570;2022-10-31T06:29:50;98042.69;;;9.61;94.58
1371;BME280;14306;49.942;11.570;2022-10-31T06:32:15;98046.22;;;9.56;94.13
1371;BME280;14306;49.942;11.570;2022-10-31T06:34:42;98046.88;;;9.77;94.83
1371;BME280;14306;49.942;11.570;2022-10-31T06:37:08;98044.22;;;10.34;94.75
1371;BME280;14306;49.942;11.570;2022-10-31T06:39:34;98032.97;;;10.74;94.52
1371;BME280;14306;49.942;11.570;2022-10-31T06:42:00;98045.28;;;11.64;94.62
1371;BME280;14306;49.942;11.570;2022-10-31T06:44:28;98049.75;;;11.92;93.70
1371;BME280;14306;49.942;11.570;2022-10-31T06:46:53;98056.47;;;12.40;92.26
1371;BME280;14306;49.942;11.570;2022-10-31T06:49:18;98048.59;;;12.84;90.83
1371;BME280;14306;49.942;11.570;2022-10-31T06:51:47;98056.09;;;12.87;88.67
1371;BME280;14306;49.942;11.570;2022-10-31T06:54:13;98055.66;;;12.99;87.52
1371;BME280;14306;49.942;11.570;2022-10-31T06:56:39;98058.88;;;14.07;90.05
1371;BME280;14306;49.942;11.570;2022-10-31T06:59:05;98049.75;;;14.25;89.97
1371;BME280;14306;49.942;11.570;2022-10-31T07:01:30;98052.94;;;15.36;86.07
1371;BME280;14306;49.942;11.570;2022-10-31T07:03:56;98047.34;;;15.75;84.63
1371;BME280;14306;49.942;11.570;2022-10-31T07:06:21;98055.06;;;15.99;83.53
1371;BME280;14306;49.942;11.570;2022-10-31T07:08:47;98062.13;;;15.66;81.95
1371;BME280;14306;49.942;11.570;2022-10-31T07:11:12;98058.03;;;16.48;81.13
1371;BME280;14306;49.942;11.570;2022-10-31T07:13:38;98062.94;;;15.75;81.40
1371;BME280;14306;49.942;11.570;2022-10-31T07:16:04;98070.47;;;16.12;83.19
1371;BME280;14306;49.942;11.570;2022-10-31T07:18:32;98068.31;;;17.84;76.36
1371;BME280;14306;49.942;11.570;2022-10-31T07:20:57;98063.94;;;17.42;73.65
1371;BME280;14306;49.942;11.570;2022-10-31T07:23:23;98058.75;;;17.49;75.05
1371;BME280;14306;49.942;11.570;2022-10-31T07:25:48;98064.34;;;16.95;73.66
1371;BME280;14306;49.942;11.570;2022-10-31T07:28:19;98066.38;;;17.44;73.28
1371;BME280;14306;49.942;11.570;2022-10-31T07:30:49;98057.72;;;18.15;72.69
1371;BME280;14306;49.942;11.570;2022-10-31T07:33:15;98070.63;;;18.68;69.74
1371;BME280;14306;49.942;11.570;2022-10-31T07:35:40;98064.56;;;18.74;66.16
1371;BME280;14306;49.942;11.570;2022-10-31T07:38:07;98068.16;;;19.59;65.39
1371;BME280;14306;49.942;11.570;2022-10-31T07:40:33;98066.28;;;18.34;70.94
1371;BME280;14306;49.942;11.570;2022-10-31T07:42:59;98066.09;;;18.51;71.61
1371;BME280;14306;49.942;11.570;2022-10-31T07:45:24;98062.97;;;20.21;61.25
1371;BME280;14306;49.942;11.570;2022-10-31T07:47:51;98064.44;;;19.91;60.68
1371;BME280;14306;49.942;11.570;2022-10-31T07:50:19;98071.38;;;20.01;61.53
1371;BME280;14306;49.942;11.570;2022-10-31T07:52:45;98073.63;;;20.50;57.58
1371;BME280;14306;49.942;11.570;2022-10-31T07:55:11;98082.69;;;21.40;54.70
1371;BME280;14306;49.942;11.570;2022-10-31T07:57:37;98076.41;;;21.40;54.79
1371;BME280;14306;49.942;11.570;2022-10-31T08:00:04;98071.69;;;21.09;55.46
1371;BME280;14306;49.942;11.570;2022-10-31T08:02:30;98060.50;;;19.53;64.58
1371;BME280;14306;49.942;11.570;2022-10-31T08:04:55;98070.97;;;21.12;58.32
1371;BME280;14306;49.942;11.570;2022-10-31T08:07:20;98068.97;;;20.39;61.95
1371;BME280;14306;49.942;11.570;2022-10-31T08:09:46;98060.44;;;20.71;59.43
1371;BME280;14306;49.942;11.570;2022-10-31T08:12:11;98066.31;;;20.85;62.19
1371;BME280;14306;49.942;11.570;2022-10-31T08:14:37;98072.47;;;21.56;53.79
1371;BME280;14306;49.942;11.570;2022-10-31T08:17:02;98065.13;;;21.64;55.56
1371;BME280;14306;49.942;11.570;2022-10-31T08:19:27;98058.34;;;21.27;54.20
1371;BME280;14306;49.942;11.570;2022-10-31T08:21:53;98044.69;;;20.56;57.87
1371;BME280;14306;49.942;11.570;2022-10-31T08:24:21;98052.81;;;20.37;57.89
1371;BME280;14306;49.942;11.570;2022-10-31T08:26:47;98066.78;;;21.49;53.23
1371;BME280;14306;49.942;11.570;2022-10-31T08:29:13;98067.66;;;21.53;55.33
1371;BME280;14306;49.942;11.570;2022-10-31T08:31:40;98067.13;;;21.98;52.77
1371;BME280;14306;49.942;11.570;2022-10-31T08:34:05;98082.09;;;23.18;49.85
1371;BME280;14306;49.942;11.570;2022-10-31T08:36:31;98078.28;;;23.04;49.71
1371;BME280;14306;49.942;11.570;2022-10-31T08:38:56;98052.94;;;21.65;54.82
1371;BME280;14306;49.942;11.570;2022-10-31T08:41:21;98078.78;;;23.54;48.57
1371;BME280;14306;49.942;11.570;2022-10-31T08:43:47;98088.22;;;24.02;47.28
1371;BME280;14306;49.942;11.570;2022-10-31T08:46:13;98085.34;;;23.95;46.10
1371;BME280;14306;49.942;11.570;2022-10-31T08:48:38;98066.00;;;23.46;47.71
1371;BME280;14306;49.942;11.570;2022-10-31T08:51:04;98061.34;;;23.05;49.42
1371;BME280;14306;49.942;11.570;2022-10-31T08:53:29;98045.56;;;22.22;52.27
1371;BME280;14306;49.942;11.570;2022-10-31T08:55:56;98068.97;;;23.60;48.38
1371;BME280;14306;49.942;11.570;2022-10-31T08:58:22;98071.06;;;23.93;47.37
1371;BME280;14306;49.942;11.570;2022-10-31T09:00:50;98080.47;;;24.47;45.37
1371;BME280;14306;49.942;11.570;2022-10-31T09:03:20;98067.88;;;23.65;47.76
1371;BME280;14306;49.942;11.570;2022-10-31T09:05:46;98073.41;;;23.91;47.33
1371;BME280;14306;49.942;11.570;2022-10-31T09:08:12;98037.84;;;22.12;52.29
1371;BME280;14306;49.942;11.570;2022-10-31T09:10:37;98047.63;;;22.90;50.24
1371;BME280;14306;49.942;11.570;2022-10-31T09:13:11;98038.88;;;22.23;52.63
1371;BME280;14306;49.942;11.570;2022-10-31T09:15:39;98056.56;;;23.51;48.98
1371;BME280;14306;49.942;11.570;2022-10-31T09:18:05;98042.28;;;22.78;49.78
1371;BME280;14306;49.942;11.570;2022-10-31T09:20:31;98031.88;;;21.72;53.18
1371;BME280;14306;49.942;11.570;2022-10-31T09:22:59;98023.69;;;21.60;53.83
1371;BME280;14306;49.942;11.570;2022-10-31T09:25:26;98025.06;;;21.01;55.47
1371;BME280;14306;49.942;11.570;2022-10-31T09:27:58;98023.81;;;20.40;57.28
1371;BME280;14306;49.942;11.570;2022-10-31T09:30:26;98028.56;;;20.27;58.50
1371;BME280;14306;49.942;11.570;2022-10-31T09:32:56;98031.00;;;20.44;57.84
1371;BME280;14306;49.942;11.570;2022-10-31T09:35:22;98028.97;;;19.74;59.93
1371;BME280;14306;49.942;11.570;2022-10-31T09:37:53;98029.19;;;19.81;60.07
1371;BME280;14306;49.942;11.570;2022-10-31T09:40:19;98023.22;;;19.79;60.67
1371;BME280;14306;49.942;11.570;2022-10-31T09:42:56;98021.06;;;19.73;60.61
1371;BME280;14306;49.942;11.570;2022-10-31T09:45:36;98028.88;;;19.98;60.30
1371;BME280;14306;49.942;11.570;2022-10-31T09:50:47;98026.19;;;19.86;60.59
1371;BME280;14306;49.942;11.570;2022-10-31T09:55:49;98012.69;;;19.81;60.84
1371;BME280;14306;49.942;11.570;2022-10-31T09:58:27;98024.28;;;19.63;61.76
1371;BME280;14306;49.942;11.570;2022-10-31T10:00:56;98022.56;;;20.10;60.29
1371;BME280;14306;49.942;11.570;2022-10-31T10:03:39;98029.91;;;20.33;59.64
1371;BME280;14306;49.942;11.570;2022-10-31T10:08:32;98021.00;;;20.52;59.49
1371;BME280;14306;49.942;11.570;2022-10-31T10:13:47;98012.75;;;20.24;60.67
1371;BME280;14306;49.942;11.570;2022-10-31T10:25:25;98004.97;;;20.42;61.40
1371;BME280;14306;49.942;11.570;2022-10-31T10:28:15;98004.31;;;20.91;59.91
1371;BME280;14306;49.942;11.570;2022-10-31T10:30:47;97998.34;;;20.89;59.88
1371;BME280;14306;49.942;11.570;2022-10-31T10:36:03;97995.28;;;21.06;59.86
1371;BME280;14306;49.942;11.570;2022-10-31T10:41:03;97988.44;;;21.69;57.76
1371;BME280;14306;49.942;11.570;2022-10-31T10:43:35;97975.50;;;21.54;57.99
1371;BME280;14306;49.942;11.570;2022-10-31T10:48:55;97977.06;;;21.71;57.65
1371;BME280;14306;49.942;11.570;2022-10-31T10:59:30;97966.03;;;21.71;57.37
1371;BME280;14306;49.942;11.570;2022-10-31T11:01:56;97956.34;;;21.61;57.13
1371;BME280;14306;49.942;11.570;2022-10-31T11:04:35;97950.97;;;21.49;58.37
1371;BME280;14306;49.942;11.570;2022-10-31T11:09:29;97945.56;;;21.72;57.82
1371;BME280;14306;49.942;11.570;2022-10-31T11:11:56;97943.78;;;21.64;57.67
1371;BME280;14306;49.942;11.570;2022-10-31T11:14:23;97935.03;;;21.96;57.05
1371;BME280;14306;49.942;11.570;2022-10-31T11:17:06;97939.09;;;22.02;56.62
1371;BME280;14306;49.942;11.570;2022-10-31T11:19:33;97932.63;;;21.76;57.37
1371;BME280;14306;49.942;11.570;2022-10-31T11:22:12;97929.63;;;21.81;58.11
1371;BME280;14306;49.942;11.570;2022-10-31T11:24:41;97926.53;;;21.67;58.08
1371;BME280;14306;49.942;11.570;2022-10-31T11:27:21;97927.22;;;21.79;58.10
1371;BME280;14306;49.942;11.570;2022-10-31T11:29:46;97927.66;;;22.23;57.05
1371;BME280;14306;49.942;11.570;2022-10-31T11:32:21;97917.03;;;22.25;56.13
1371;BME280;14306;49.942;11.570;2022-10-31T11:34:51;97924.38;;;22.36;56.32
1371;BME280;14306;49.942;11.570;2022-10-31T11:37:19;97914.81;;;22.34;56.34
1371;BME280;14306;49.942;11.570;2022-10-31T11:40:33;97916.81;;;22.56;55.71
1371;BME280;14306;49.942;11.570;2022-10-31T11:42:41;97909.19;;;22.72;55.52
1371;BME280;14306;49.942;11.570;2022-10-31T11:45:17;97901.78;;;22.31;56.60
1371;BME280;14306;49.942;11.570;2022-10-31T11:47:50;97896.88;;;22.66;55.35
1371;BME280;14306;49.942;11.570;2022-10-31T11:50:42;97891.84;;;22.72;54.88
1371;BME280;14306;49.942;11.570;2022-10-31T11:53:16;97888.25;;;22.71;54.84
1371;BME280;14306;49.942;11.570;2022-10-31T11:55:42;97885.38;;;22.64;54.98
1371;BME280;14306;49.942;11.570;2022-10-31T11:58:25;97881.09;;;22.67;55.40
1371;BME280;14306;49.942;11.570;2022-10-31T12:00:54;97878.91;;;22.53;55.36
1371;BME280;14306;49.942;11.570;2022-10-31T12:05:56;97875.78;;;22.81;54.00
1371;BME280;14306;49.942;11.570;2022-10-31T12:08:29;97864.91;;;22.65;54.15
1371;BME280;14306;49.942;11.570;2022-10-31T12:17:14;97872.44;;;23.50;52.11
1371;BME280;14306;49.942;11.570;2022-10-31T12:22:56;97862.22;;;23.24;52.90
1371;BME280;14306;49.942;11.570;2022-10-31T12:25:44;97857.31;;;23.40;52.30
1371;BME280;14306;49.942;11.570;2022-10-31T12:39:50;97835.47;;;23.32;53.57
1371;BME280;14306;49.942;11.570;2022-10-31T12:50:54;97832.38;;;23.37;54.72
1371;BME280;14306;49.942;11.570;2022-10-31T12:58:47;97824.09;;;23.40;54.64
1371;BME280;14306;49.942;11.570;2022-10-31T13:04:16;97802.50;;;22.90;55.83
1371;BME280;14306;49.942;11.570;2022-10-31T13:06:59;97804.31;;;23.09;55.86
1371;BME280;14306;49.942;11.570;2022-10-31T13:09:35;97814.88;;;23.62;54.13
1371;BME280;14306;49.942;11.570;2022-10-31T13:12:08;97809.72;;;23.57;54.36
1371;BME280;14306;49.942;11.570;2022-10-31T13:17:47;97808.47;;;23.55;54.66
1371;BME280;14306;49.942;11.570;2022-10-31T13:22:59;97798.94;;;23.49;53.72
1371;BME280;14306;49.942;11.570;2022-10-31T13:25:33;97789.34;;;23.39;53.86
1371;BME280;14306;49.942;11.570;2022-10-31T13:28:09;97785.03;;;23.42;53.75
1371;BME280;14306;49.942;11.570;2022-10-31T13:30:40;97789.34;;;23.76;53.40
1371;BME280;14306;49.942;11.570;2022-10-31T13:33:14;97782.00;;;23.54;53.82
1371;BME280;14306;49.942;11.570;2022-10-31T13:38:36;97766.75;;;23.70;54.96
1371;BME280;14306;49.942;11.570;2022-10-31T13:41:31;97774.13;;;23.92;54.98
1371;BME280;14306;49.942;11.570;2022-10-31T13:44:10;97779.88;;;24.20;54.22
1371;BME280;14306;49.942;11.570;2022-10-31T13:46:39;97758.91;;;23.76;55.83
1371;BME280;14306;49.942;11.570;2022-10-31T13:51:48;97753.84;;;23.85;55.73
1371;BME280;14306;49.942;11.570;2022-10-31T13:54:32;97753.75;;;23.78;56.22
1371;BME280;14306;49.942;11.570;2022-10-31T13:56:58;97748.88;;;23.61;56.60
1371;BME280;14306;49.942;11.570;2022-10-31T13:59:29;97748.28;;;23.81;56.58
1371;BME280;14306;49.942;11.570;2022-10-31T14:02:01;97744.25;;;23.75;56.45
1371;BME280;14306;49.942;11.570;2022-10-31T14:04:38;97746.19;;;23.68;56.81
1371;BME280;14306;49.942;11.570;2022-10-31T14:07:14;97738.88;;;23.89;56.69
1371;BME280;14306;49.942;11.570;2022-10-31T14:12:40;97737.91;;;23.31;58.28
1371;BME280;14306;49.942;11.570;2022-10-31T14:15:24;97735.59;;;23.37;58.13
1371;BME280;14306;49.942;11.570;2022-10-31T14:18:21;97731.34;;;23.46;57.73
1371;BME280;14306;49.942;11.570;2022-10-31T14:20:47;97732.25;;;23.21;58.67
1371;BME280;14306;49.942;11.570;2022-10-31T14:28:48;97722.63;;;22.78;59.95
1371;BME280;14306;49.942;11.570;2022-10-31T14:31:27;97723.13;;;22.87;59.73
1371;BME280;14306;49.942;11.570;2022-10-31T14:33:53;97696.25;;;22.28;60.87
1371;BME280;14306;49.942;11.570;2022-10-31T14:36:29;97717.19;;;22.29;61.46
1371;BME280;14306;49.942;11.570;2022-10-31T14:39:21;97704.59;;;22.06;62.05
1371;BME280;14306;49.942;11.570;2022-10-31T14:48:33;97700.59;;;21.77;62.08
1371;BME280;14306;49.942;11.570;2022-10-31T14:50:41;97692.91;;;21.90;62.18
1371;BME280;14306;49.942;11.570;2022-10-31T14:53:22;97684.16;;;21.62;62.45
1371;BME280;14306;49.942;11.570;2022-10-31T14:55:51;97684.16;;;21.39;63.12
1371;BME280;14306;49.942;11.570;2022-10-31T14:58:38;97683.78;;;21.41;63.12
1371;BME280;14306;49.942;11.570;2022-10-31T15:01:04;97676.00;;;21.24;63.95
1371;BME280;14306;49.942;11.570;2022-10-31T15:03:42;97681.09;;;21.03;64.87
1371;BME280;14306;49.942;11.570;2022-10-31T15:06:15;97673.16;;;20.98;65.30
1371;BME280;14306;49.942;11.570;2022-10-31T15:08:52;97673.50;;;20.96;65.53
1371;BME280;14306;49.942;11.570;2022-10-31T15:11:22;97666.16;;;20.85;66.06
1371;BME280;14306;49.942;11.570;2022-10-31T15:13:50;97669.94;;;20.77;67.08
1371;BME280;14306;49.942;11.570;2022-10-31T15:16:40;97671.56;;;20.59;67.51
1371;BME280;14306;49.942;11.570;2022-10-31T15:19:09;97661.91;;;20.30;68.66
1371;BME280;14306;49.942;11.570;2022-10-31T15:21:42;97661.97;;;20.34;68.76
1371;BME280;14306;49.942;11.570;2022-10-31T15:24:13;97659.72;;;20.39;68.43
1371;BME280;14306;49.942;11.570;2022-10-31T15:26:53;97658.31;;;20.11;69.93
1371;BME280;14306;49.942;11.570;2022-10-31T15:29:25;97652.09;;;20.14;69.86
1371;BME280;14306;49.942;11.570;2022-10-31T15:36:58;97640.41;;;19.86;71.50
1371;BME280;14306;49.942;11.570;2022-10-31T15:39:23;97641.41;;;19.78;71.94